Time,TemperatureF,DewpointF,PressureIn,WindDirection,WindDirectionDegrees,WindSpeedMPH,WindSpeedGustMPH,Humidity,HourlyPrecipIn,Conditions,Clouds,dailyrainin,SoftwareType,DateUTC
2013-06-04 00:01:00,60.9,52.9,30.05,NE,55,2.3,2.3,75,0.00,CLR,,0.00,WeatherDisplay:10.37,2013-06-04 04:01:00,
2013-06-04 00:02:00,60.9,52.9,30.05,NE,55,2.3,2.3,75,0.00,CLR,,0.00,WeatherDisplay:10.37,2013-06-04 04:02:00,
2013-06-04 00:03:00,60.9,52.9,30.05,NE,55,3.0,3.0,75,0.00,CLR,,0.00,WeatherDisplay:10.37,2013-06-04 04:03:00,
2013-06-04 00:08:00,60.9,52.9,30.05,NE,55,3.5,3.5,75,0.00,CLR,,0.00,WeatherDisplay:10.37,2013-06-04 04:08:00,
2013-06-04 00:13:00,60.8,52.8,30.05,NE,55,2.3,2.3,75,0.00,CLR,,0.00,WeatherDisplay:10.37,2013-06-04 04:13:00,
2013-06-04 00:18:00,60.8,52.8,30.05,NE,55,3.5,3.5,75,0.00,CLR,,0.00,WeatherDisplay:10.37,2013-06-04 04:18:00,
2013-06-04 00:23:00,60.8,52.8,30.05,NE,55,3.5,3.5,75,0.00,CLR,,0.00,WeatherDisplay:10.37,2013-06-04 04:23:00,
2013-06-04 00:28:00,60.7,52.7,30.05,NE,55,3.0,3.0,75,0.00,CLR,,0.00,WeatherDisplay:10.37,2013-06-04 04:28:00,
2013-06-04 00:33:00,60.6,52.6,30.05,NE,55,4.6,4.6,75,0.00,CLR,,0.00,WeatherDisplay:10.37,2013-06-04 04:33:00,
2013-06-04 00:38:00,60.6,52.3,30.05,NE,55,4.0,4.0,74,0.00,CLR,,0.00,WeatherDisplay:10.37,2013-06-04 04:38:00,
2013-06-04 00:43:00,60.7,52.4,30.05,NE,56,4.6,4.6,74,0.00,CLR,,0.00,WeatherDisplay:10.37,2013-06-04 04:43:00,
2013-06-04 00:48:00,60.8,52.5,30.05,NE,55,5.0,5.0,74,0.00,CLR,,0.00,WeatherDisplay:10.37,2013-06-04 04:48:00,
2013-06-04 00:53:00,60.8,52.5,30.05,NE,56,3.5,3.5,74,0.00,CLR,,0.00,WeatherDisplay:10.37,2013-06-04 04:53:00,
2013-06-04 00:58:00,60.7,52.4,30.05,NE,55,3.5,3.5,74,0.00,CLR,,0.00,WeatherDisplay:10.37,2013-06-04 04:58:00,
2013-06-04 01:03:00,60.6,52.3,30.05,NE,56,5.0,5.0,74,0.00,CLR,,0.00,WeatherDisplay:10.37,2013-06-04 05:03:00,
2013-06-04 01:08:00,60.5,52.2,30.05,NE,56,1.1,1.1,74,0.00,CLR,,0.00,WeatherDisplay:10.37,2013-06-04 05:08:00,
2013-06-04 01:13:00,60.3,52.3,30.05,NE,56,2.3,2.3,75,0.00,CLR,,0.00,WeatherDisplay:10.37,2013-06-04 05:13:00,
2013-06-04 01:18:00,60.2,52.2,30.05,NE,56,3.0,3.0,75,0.00,CLR,,0.00,WeatherDisplay:10.37,2013-06-04 05:18:00,
2013-06-04 01:23:00,60.2,52.2,30.05,NE,56,2.0,2.0,75,0.00,CLR,,0.00,WeatherDisplay:10.37,2013-06-04 05:23:00,
2013-06-04 01:28:00,60.1,52.1,30.05,ENE,58,3.5,3.5,75,0.00,CLR,,0.00,WeatherDisplay:10.37,2013-06-04 05:28:00,
2013-06-04 01:33:00,60.0,52.1,30.05,ENE,58,2.3,2.3,75,0.00,CLR,,0.00,WeatherDisplay:10.37,2013-06-04 05:33:00,
2013-06-04 01:38:00,60.0,52.4,30.05,ENE,60,5.0,5.0,76,0.00,CLR,,0.00,WeatherDisplay:10.37,2013-06-04 05:38:00,
2013-06-04 01:43:00,59.8,52.2,30.06,ENE,61,5.8,5.8,76,0.00,CLR,,0.00,WeatherDisplay:10.37,2013-06-04 05:43:00,
2013-06-04 01:48:00,59.7,52.1,30.05,ENE,62,4.0,4.0,76,0.00,CLR,,0.00,WeatherDisplay:10.37,2013-06-04 05:48:00,
2013-06-04 01:53:00,59.5,51.9,30.05,ENE,62,2.3,2.3,76,0.00,CLR,,0.00,WeatherDisplay:10.37,2013-06-04 05:53:00,
2013-06-04 01:59:00,59.3,52.1,30.05,ENE,62,5.0,5.0,77,0.00,CLR,,0.00,WeatherDisplay:10.37,2013-06-04 05:59:00,
2013-06-04 02:04:00,59.0,51.8,30.05,ENE,62,3.5,3.5,77,0.00,CLR,,0.00,WeatherDisplay:10.37,2013-06-04 06:04:00,
2013-06-04 02:09:00,59.0,51.8,30.05,ENE,63,3.5,3.5,77,0.00,CLR,,0.00,WeatherDisplay:10.37,2013-06-04 06:09:00,
2013-06-04 02:14:00,59.0,51.8,30.05,ENE,63,3.5,3.5,77,0.00,CLR,,0.00,WeatherDisplay:10.37,2013-06-04 06:14:00,
2013-06-04 02:19:00,59.0,52.1,30.05,ENE,63,0.0,0.0,78,0.00,CLR,,0.00,WeatherDisplay:10.37,2013-06-04 06:19:00,
2013-06-04 02:24:00,59.0,52.1,30.05,ENE,63,4.0,4.0,78,0.00,CLR,,0.00,WeatherDisplay:10.37,2013-06-04 06:24:00,
2013-06-04 02:29:00,59.0,52.1,30.05,ENE,63,3.5,3.5,78,0.00,CLR,,0.00,WeatherDisplay:10.37,2013-06-04 06:29:00,
2013-06-04 02:34:00,58.9,52.1,30.05,ENE,63,2.3,2.3,78,0.00,CLR,,0.00,WeatherDisplay:10.37,2013-06-04 06:34:00,
2013-06-04 02:39:00,58.8,52.0,30.05,ENE,63,3.5,3.5,78,0.00,CLR,,0.00,WeatherDisplay:10.37,2013-06-04 06:39:00,
2013-06-04 02:44:00,58.8,52.0,30.05,ENE,63,1.1,1.1,78,0.00,CLR,,0.00,WeatherDisplay:10.37,2013-06-04 06:44:00,
2013-06-04 02:49:00,58.9,52.1,30.05,ENE,63,2.3,2.3,78,0.00,CLR,,0.00,WeatherDisplay:10.37,2013-06-04 06:49:00,
2013-06-04 02:54:00,59.0,52.1,30.05,ENE,63,2.3,2.3,78,0.00,CLR,,0.00,WeatherDisplay:10.37,2013-06-04 06:54:00,
2013-06-04 02:59:00,59.0,51.8,30.05,ENE,63,2.3,2.3,77,0.00,CLR,,0.00,WeatherDisplay:10.37,2013-06-04 06:59:00,
2013-06-04 03:04:00,59.0,51.8,30.05,ENE,63,2.3,2.3,77,0.00,CLR,,0.00,WeatherDisplay:10.37,2013-06-04 07:04:00,
2013-06-04 03:09:00,58.9,51.7,30.05,ENE,63,2.3,2.3,77,0.00,CLR,,0.00,WeatherDisplay:10.37,2013-06-04 07:09:00,
2013-06-04 03:14:00,58.7,51.9,30.05,ENE,63,1.1,1.1,78,0.00,CLR,,0.00,WeatherDisplay:10.37,2013-06-04 07:14:00,
2013-06-04 03:19:00,58.6,51.8,30.05,ENE,63,2.0,2.0,78,0.00,CLR,,0.00,WeatherDisplay:10.37,2013-06-04 07:19:00,
2013-06-04 03:24:00,58.4,51.6,30.06,ENE,63,1.1,1.1,78,0.00,CLR,,0.00,WeatherDisplay:10.37,2013-06-04 07:24:00,
2013-06-04 03:29:00,58.3,51.5,30.06,ENE,63,1.0,0.0,78,0.00,CLR,,0.00,WeatherDisplay:10.37,2013-06-04 07:29:00,
2013-06-04 03:34:00,58.1,51.6,30.05,ENE,63,3.5,3.5,79,0.00,CLR,,0.00,WeatherDisplay:10.37,2013-06-04 07:34:00,
2013-06-04 03:39:00,58.1,51.6,30.05,ENE,63,0.0,0.0,79,0.00,CLR,,0.00,WeatherDisplay:10.37,2013-06-04 07:39:00,
2013-06-04 03:44:00,58.0,51.5,30.05,ENE,63,0.0,0.0,79,0.00,CLR,,0.00,WeatherDisplay:10.37,2013-06-04 07:44:00,
2013-06-04 03:49:00,57.9,51.4,30.06,ENE,63,1.1,1.1,79,0.00,CLR,,0.00,WeatherDisplay:10.37,2013-06-04 07:49:00,
2013-06-04 03:54:00,58.0,51.5,30.06,ENE,63,1.1,1.1,79,0.00,CLR,,0.00,WeatherDisplay:10.37,2013-06-04 07:54:00,
2013-06-04 03:59:00,58.1,51.6,30.06,ENE,63,2.3,2.3,79,0.00,CLR,,0.00,WeatherDisplay:10.37,2013-06-04 07:59:00,
2013-06-04 04:04:00,58.2,51.7,30.06,ENE,63,2.3,0.0,79,0.00,CLR,,0.00,WeatherDisplay:10.37,2013-06-04 08:04:00,
2013-06-04 04:09:00,58.2,51.7,30.06,ENE,63,3.5,3.5,79,0.00,CLR,,0.00,WeatherDisplay:10.37,2013-06-04 08:09:00,
2013-06-04 04:14:00,58.2,51.4,30.06,ENE,63,2.3,2.3,78,0.00,CLR,,0.00,WeatherDisplay:10.37,2013-06-04 08:14:00,
2013-06-04 04:19:00,58.1,51.6,30.06,ENE,63,0.0,0.0,79,0.00,CLR,,0.00,WeatherDisplay:10.37,2013-06-04 08:19:00,
2013-06-04 04:24:00,58.0,51.5,30.06,ENE,63,1.1,1.1,79,0.00,CLR,,0.00,WeatherDisplay:10.37,2013-06-04 08:24:00,
2013-06-04 04:29:00,57.8,51.3,30.06,ENE,63,3.5,3.5,79,0.00,CLR,,0.00,WeatherDisplay:10.37,2013-06-04 08:29:00,
2013-06-04 04:34:00,57.5,51.0,30.06,ENE,63,3.5,3.5,79,0.00,CLR,,0.00,WeatherDisplay:10.37,2013-06-04 08:34:00,
2013-06-04 04:39:00,57.2,51.1,30.06,ENE,63,4.0,4.0,80,0.00,CLR,,0.00,WeatherDisplay:10.37,2013-06-04 08:39:00,
2013-06-04 04:44:00,57.0,50.9,30.07,ENE,63,3.0,3.0,80,0.00,CLR,,0.00,WeatherDisplay:10.37,2013-06-04 08:44:00,
2013-06-04 04:49:00,56.9,51.1,30.07,ENE,63,4.0,4.0,81,0.00,CLR,,0.00,WeatherDisplay:10.37,2013-06-04 08:49:00,
2013-06-04 04:54:00,56.7,50.9,30.07,ENE,63,4.0,4.0,81,0.00,CLR,,0.00,WeatherDisplay:10.37,2013-06-04 08:54:00,
2013-06-04 05:00:00,56.6,50.8,30.07,ENE,64,2.0,2.0,81,0.00,CLR,,0.00,WeatherDisplay:10.37,2013-06-04 09:00:00,
2013-06-04 05:05:00,56.5,51.1,30.07,ENE,63,3.5,3.5,82,0.00,CLR,,0.00,WeatherDisplay:10.37,2013-06-04 09:05:00,
2013-06-04 05:10:00,56.4,51.0,30.07,ENE,63,3.0,3.0,82,0.00,CLR,,0.00,WeatherDisplay:10.37,2013-06-04 09:10:00,
2013-06-04 05:15:00,56.3,50.9,30.07,ENE,63,5.0,5.0,82,0.00,CLR,,0.00,WeatherDisplay:10.37,2013-06-04 09:15:00,
2013-06-04 05:20:00,56.2,50.8,30.07,ENE,63,2.3,2.3,82,0.00,CLR,,0.00,WeatherDisplay:10.37,2013-06-04 09:20:00,
2013-06-04 05:25:00,56.2,50.8,30.07,ENE,63,1.1,1.1,82,0.00,CLR,,0.00,WeatherDisplay:10.37,2013-06-04 09:25:00,
2013-06-04 05:30:00,56.2,50.8,30.07,ENE,63,3.5,0.0,82,0.00,CLR,,0.00,WeatherDisplay:10.37,2013-06-04 09:30:00,
2013-06-04 05:35:00,56.2,50.8,30.07,ENE,64,2.3,2.3,82,0.00,CLR,,0.00,WeatherDisplay:10.37,2013-06-04 09:35:00,
2013-06-04 05:40:00,56.2,50.8,30.07,ENE,64,2.0,2.0,82,0.00,CLR,,0.00,WeatherDisplay:10.37,2013-06-04 09:40:00,
2013-06-04 05:45:00,56.2,50.8,30.07,ENE,63,1.1,0.0,82,0.00,CLR,,0.00,WeatherDisplay:10.37,2013-06-04 09:45:00,
2013-06-04 05:50:00,56.1,50.7,30.07,ENE,64,2.3,2.3,82,0.00,CLR,,0.00,WeatherDisplay:10.37,2013-06-04 09:50:00,
2013-06-04 05:55:00,56.0,50.6,30.07,ENE,64,3.0,3.0,82,0.00,CLR,,0.00,WeatherDisplay:10.37,2013-06-04 09:55:00,
2013-06-04 06:00:00,56.0,50.6,30.07,ENE,63,2.0,2.0,82,0.00,CLR,,0.00,WeatherDisplay:10.37,2013-06-04 10:00:00,
2013-06-04 06:05:00,55.9,50.5,30.07,ENE,64,1.1,1.1,82,0.00,CLR,,0.00,WeatherDisplay:10.37,2013-06-04 10:05:00,
2013-06-04 06:10:00,55.9,50.5,30.07,ENE,63,3.5,3.5,82,0.00,CLR,,0.00,WeatherDisplay:10.37,2013-06-04 10:10:00,
2013-06-04 06:15:00,55.9,50.5,30.07,ENE,64,3.5,3.5,82,0.00,CLR,,0.00,WeatherDisplay:10.37,2013-06-04 10:15:00,
2013-06-04 06:20:00,55.8,50.7,30.08,ENE,64,2.3,2.3,83,0.00,CLR,,0.00,WeatherDisplay:10.37,2013-06-04 10:20:00,
2013-06-04 06:25:00,55.7,50.6,30.08,ENE,63,1.1,1.1,83,0.00,CLR,,0.00,WeatherDisplay:10.37,2013-06-04 10:25:00,
2013-06-04 06:30:00,55.7,50.6,30.08,ENE,63,3.5,3.5,83,0.00,CLR,,0.00,WeatherDisplay:10.37,2013-06-04 10:30:00,
2013-06-04 06:35:00,55.8,50.7,30.08,ENE,64,2.3,2.3,83,0.00,CLR,,0.00,WeatherDisplay:10.37,2013-06-04 10:35:00,
2013-06-04 06:40:00,55.8,50.7,30.08,ENE,63,4.0,4.0,83,0.00,CLR,,0.00,WeatherDisplay:10.37,2013-06-04 10:40:00,
2013-06-04 06:45:00,55.8,50.7,30.09,ENE,64,3.5,3.5,83,0.00,CLR,,0.00,WeatherDisplay:10.37,2013-06-04 10:45:00,
2013-06-04 06:50:00,55.8,50.7,30.09,ENE,63,3.5,3.5,83,0.00,CLR,,0.00,WeatherDisplay:10.37,2013-06-04 10:50:00,
2013-06-04 06:55:00,55.8,50.7,30.09,ENE,63,2.3,2.3,83,0.00,CLR,,0.00,WeatherDisplay:10.37,2013-06-04 10:55:00,
2013-06-04 07:00:00,55.9,50.8,30.09,ENE,64,1.1,1.1,83,0.00,CLR,,0.00,WeatherDisplay:10.37,2013-06-04 11:00:00,
2013-06-04 07:05:00,56.0,50.9,30.09,ENE,63,1.1,0.0,83,0.00,CLR,,0.00,WeatherDisplay:10.37,2013-06-04 11:05:00,
2013-06-04 07:10:00,56.2,51.1,30.09,ENE,63,3.5,3.5,83,0.00,CLR,,0.00,WeatherDisplay:10.37,2013-06-04 11:10:00,
2013-06-04 07:15:00,56.4,51.3,30.09,ENE,63,2.3,2.3,83,0.00,CLR,,0.00,WeatherDisplay:10.37,2013-06-04 11:15:00,
2013-06-04 07:20:00,56.6,51.2,30.09,ENE,63,1.1,1.1,82,0.00,CLR,,0.00,WeatherDisplay:10.37,2013-06-04 11:20:00,
2013-06-04 07:25:00,56.9,51.5,30.09,ENE,63,2.3,2.3,82,0.00,CLR,,0.00,WeatherDisplay:10.37,2013-06-04 11:25:00,
2013-06-04 07:30:00,57.2,51.8,30.09,ENE,64,3.0,3.0,82,0.00,CLR,,0.00,WeatherDisplay:10.37,2013-06-04 11:30:00,
2013-06-04 07:35:00,57.6,51.8,30.09,ENE,63,3.5,3.5,81,0.00,CLR,,0.00,WeatherDisplay:10.37,2013-06-04 11:35:00,
2013-06-04 07:41:00,58.1,52.3,30.10,ENE,64,2.3,2.3,81,0.00,CLR,,0.00,WeatherDisplay:10.37,2013-06-04 11:41:00,
2013-06-04 07:46:00,58.4,52.3,30.10,ENE,64,2.3,0.0,80,0.00,CLR,,0.00,WeatherDisplay:10.37,2013-06-04 11:46:00,
2013-06-04 07:51:00,58.7,52.2,30.10,ENE,63,3.5,0.0,79,0.00,CLR,,0.00,WeatherDisplay:10.37,2013-06-04 11:51:00,
2013-06-04 07:56:00,59.0,52.5,30.10,ENE,76,4.0,4.0,79,0.00,CLR,,0.00,WeatherDisplay:10.37,2013-06-04 11:56:00,
2013-06-04 08:01:00,59.0,52.5,30.10,ENE,71,4.0,4.0,79,0.00,CLR,,0.00,WeatherDisplay:10.37,2013-06-04 12:01:00,
2013-06-04 08:06:00,59.4,52.5,30.11,ENE,68,8.0,8.0,78,0.00,CLR,,0.00,WeatherDisplay:10.37,2013-06-04 12:06:00,
2013-06-04 08:11:00,59.5,52.6,30.11,ENE,64,3.0,3.0,78,0.00,CLR,,0.00,WeatherDisplay:10.37,2013-06-04 12:11:00,
2013-06-04 08:16:00,59.7,52.5,30.11,ENE,62,8.1,8.1,77,0.00,CLR,,0.00,WeatherDisplay:10.37,2013-06-04 12:16:00,
2013-06-04 08:21:00,59.9,52.7,30.11,ENE,63,3.0,3.0,77,0.00,CLR,,0.00,WeatherDisplay:10.37,2013-06-04 12:21:00,
2013-06-04 08:27:00,60.3,52.7,30.11,ENE,64,2.3,2.3,76,0.00,CLR,,0.00,WeatherDisplay:10.37,2013-06-04 12:27:00,
2013-06-04 08:32:00,60.6,52.6,30.11,ENE,68,3.5,3.5,75,0.00,CLR,,0.00,WeatherDisplay:10.37,2013-06-04 12:32:00,
2013-06-04 08:37:00,60.9,52.6,30.11,ENE,66,6.0,6.0,74,0.00,CLR,,0.00,WeatherDisplay:10.37,2013-06-04 12:37:00,
2013-06-04 08:42:00,61.1,52.4,30.12,ENE,64,3.5,3.5,73,0.00,CLR,,0.00,WeatherDisplay:10.37,2013-06-04 12:42:00,
2013-06-04 08:47:00,61.3,52.6,30.11,ENE,65,2.3,2.3,73,0.00,CLR,,0.00,WeatherDisplay:10.37,2013-06-04 12:47:00,
2013-06-04 08:52:00,61.5,52.4,30.11,ENE,65,1.1,1.1,72,0.00,CLR,,0.00,WeatherDisplay:10.37,2013-06-04 12:52:00,
2013-06-04 08:57:00,62.0,52.9,30.11,ENE,67,3.5,3.5,72,0.00,CLR,,0.00,WeatherDisplay:10.37,2013-06-04 12:57:00,
2013-06-04 09:02:00,62.5,53.0,30.10,East,83,2.3,2.3,71,0.00,CLR,,0.00,WeatherDisplay:10.37,2013-06-04 13:02:00,
2013-06-04 09:07:00,62.8,53.3,30.10,ENE,74,5.0,5.0,71,0.00,CLR,,0.00,WeatherDisplay:10.37,2013-06-04 13:07:00,
2013-06-04 09:12:00,63.0,53.1,30.11,ENE,60,7.0,7.0,70,0.00,CLR,,0.00,WeatherDisplay:10.37,2013-06-04 13:12:00,
2013-06-04 09:17:00,63.4,53.8,30.11,ENE,63,3.5,3.5,71,0.00,CLR,,0.00,WeatherDisplay:10.37,2013-06-04 13:17:00,
2013-06-04 09:22:00,63.8,53.8,30.10,ENE,60,3.5,3.5,70,0.00,CLR,,0.00,WeatherDisplay:10.37,2013-06-04 13:22:00,
2013-06-04 09:27:00,64.2,54.2,30.10,East,85,1.1,1.1,70,0.00,CLR,,0.00,WeatherDisplay:10.37,2013-06-04 13:27:00,
2013-06-04 09:32:00,64.7,54.3,30.10,East,81,6.0,6.0,69,0.00,CLR,,0.00,WeatherDisplay:10.37,2013-06-04 13:32:00,
2013-06-04 09:37:00,64.9,54.1,30.10,ESE,105,4.6,4.6,68,0.00,CLR,,0.00,WeatherDisplay:10.37,2013-06-04 13:37:00,
2013-06-04 09:42:00,65.3,54.1,30.11,ENE,70,6.0,6.0,67,0.00,CLR,,0.00,WeatherDisplay:10.37,2013-06-04 13:42:00,
2013-06-04 09:47:00,65.5,54.2,30.11,ENE,76,3.5,3.5,67,0.00,CLR,,0.00,WeatherDisplay:10.37,2013-06-04 13:47:00,
2013-06-04 09:52:00,65.7,54.4,30.11,ESE,108,5.0,5.0,67,0.00,CLR,,0.00,WeatherDisplay:10.37,2013-06-04 13:52:00,
2013-06-04 09:57:00,66.1,54.8,30.10,ESE,103,5.0,5.0,67,0.00,CLR,,0.00,WeatherDisplay:10.37,2013-06-04 13:57:00,
2013-06-04 10:02:00,66.5,55.2,30.11,East,99,5.0,5.0,67,0.00,CLR,,0.00,WeatherDisplay:10.37,2013-06-04 14:02:00,
2013-06-04 10:07:00,66.6,54.9,30.10,East,79,5.0,5.0,66,0.00,CLR,,0.00,WeatherDisplay:10.37,2013-06-04 14:07:00,
2013-06-04 10:12:00,66.5,55.2,30.10,ENE,58,5.0,5.0,67,0.00,CLR,,0.00,WeatherDisplay:10.37,2013-06-04 14:12:00,
2013-06-04 10:17:00,66.6,55.3,30.10,ENE,75,4.0,4.0,67,0.00,CLR,,0.00,WeatherDisplay:10.37,2013-06-04 14:17:00,
2013-06-04 10:22:00,66.8,55.5,30.10,ESE,110,4.0,4.0,67,0.00,CLR,,0.00,WeatherDisplay:10.37,2013-06-04 14:22:00,
2013-06-04 10:27:00,67.4,55.6,30.10,SSE,167,9.0,9.0,66,0.00,CLR,,0.00,WeatherDisplay:10.37,2013-06-04 14:27:00,
2013-06-04 10:32:00,68.0,56.2,30.10,SSE,166,0.0,0.0,66,0.00,CLR,,0.00,WeatherDisplay:10.37,2013-06-04 14:32:00,
2013-06-04 10:37:00,68.5,56.3,30.10,South,181,4.6,4.6,65,0.00,CLR,,0.00,WeatherDisplay:10.37,2013-06-04 14:37:00,
2013-06-04 10:42:00,69.1,56.4,30.10,SSE,163,5.8,5.8,64,0.00,CLR,,0.00,WeatherDisplay:10.37,2013-06-04 14:42:00,
2013-06-04 10:47:00,69.3,56.6,30.10,East,81,5.0,5.0,64,0.00,CLR,,0.00,WeatherDisplay:10.37,2013-06-04 14:47:00,
2013-06-04 10:52:00,69.6,56.4,30.10,NNE,20,6.0,6.0,63,0.00,CLR,,0.00,WeatherDisplay:10.37,2013-06-04 14:52:00,
2013-06-04 10:57:00,69.1,56.4,30.10,South,181,5.0,5.0,64,0.00,CLR,,0.00,WeatherDisplay:10.37,2013-06-04 14:57:00,
2013-06-04 11:02:00,69.2,56.5,30.10,SSE,168,5.0,5.0,64,0.00,CLR,,0.00,WeatherDisplay:10.37,2013-06-04 15:02:00,
2013-06-04 11:07:00,69.9,56.7,30.11,South,169,8.1,8.1,63,0.00,CLR,,0.00,WeatherDisplay:10.37,2013-06-04 15:07:00,
2013-06-04 11:12:00,70.3,56.7,30.11,South,180,2.3,2.3,62,0.00,CLR,,0.00,WeatherDisplay:10.37,2013-06-04 15:12:00,
2013-06-04 11:17:00,70.4,56.3,30.11,ENE,71,5.0,5.0,61,0.00,CLR,,0.00,WeatherDisplay:10.37,2013-06-04 15:17:00,
2013-06-04 11:22:00,70.4,56.3,30.10,East,88,3.5,3.5,61,0.00,CLR,,0.00,WeatherDisplay:10.37,2013-06-04 15:22:00,
2013-06-04 11:27:00,70.7,55.7,30.11,East,94,10.0,10.0,59,0.00,CLR,,0.00,WeatherDisplay:10.37,2013-06-04 15:27:00,
2013-06-04 11:32:00,70.8,56.2,30.10,East,81,10.4,10.4,60,0.00,CLR,,0.00,WeatherDisplay:10.37,2013-06-04 15:32:00,
2013-06-04 11:37:00,71.2,56.1,30.11,ENE,64,8.0,8.0,59,0.00,CLR,,0.00,WeatherDisplay:10.37,2013-06-04 15:37:00,
2013-06-04 11:42:00,71.3,55.8,30.11,East,80,4.6,4.6,58,0.00,CLR,,0.00,WeatherDisplay:10.37,2013-06-04 15:42:00,
2013-06-04 11:47:00,71.6,55.6,30.10,SSE,151,4.0,4.0,57,0.00,CLR,,0.00,WeatherDisplay:10.37,2013-06-04 15:47:00,
2013-06-04 11:52:00,71.8,55.3,30.10,ENE,69,5.0,5.0,56,0.00,CLR,,0.00,WeatherDisplay:10.37,2013-06-04 15:52:00,
2013-06-04 11:57:00,71.8,55.3,30.10,SSE,148,5.0,5.0,56,0.00,CLR,,0.00,WeatherDisplay:10.37,2013-06-04 15:57:00,
2013-06-04 12:02:00,72.2,55.6,30.10,ENE,67,5.8,5.8,56,0.00,CLR,,0.00,WeatherDisplay:10.37,2013-06-04 16:02:00,
2013-06-04 12:07:00,72.8,56.2,30.10,SSE,168,5.0,5.0,56,0.00,CLR,,0.00,WeatherDisplay:10.37,2013-06-04 16:07:00,
2013-06-04 12:12:00,72.9,55.8,30.10,SE,130,5.0,5.0,55,0.00,CLR,,0.00,WeatherDisplay:10.37,2013-06-04 16:12:00,
2013-06-04 12:17:00,72.7,56.1,30.10,SSE,162,1.1,1.1,56,0.00,CLR,,0.00,WeatherDisplay:10.37,2013-06-04 16:17:00,
2013-06-04 12:22:00,72.7,56.1,30.11,ENE,58,4.6,4.6,56,0.00,CLR,,0.00,WeatherDisplay:10.37,2013-06-04 16:22:00,
2013-06-04 12:27:00,72.6,55.5,30.11,East,81,4.0,4.0,55,0.00,CLR,,0.00,WeatherDisplay:10.37,2013-06-04 16:27:00,
2013-06-04 12:33:00,72.0,55.4,30.11,NNE,24,4.0,4.0,56,0.00,CLR,,0.00,WeatherDisplay:10.37,2013-06-04 16:33:00,
2013-06-04 12:38:00,72.3,55.2,30.11,NNE,12,4.0,4.0,55,0.00,CLR,,0.00,WeatherDisplay:10.37,2013-06-04 16:38:00,
2013-06-04 12:43:00,73.0,55.4,30.11,NE,36,6.0,6.0,54,0.00,CLR,,0.00,WeatherDisplay:10.37,2013-06-04 16:43:00,
2013-06-04 12:48:00,74.3,56.6,30.11,NE,46,4.6,4.6,54,0.00,CLR,,0.00,WeatherDisplay:10.37,2013-06-04 16:48:00,
2013-06-04 12:53:00,73.8,56.6,30.11,NE,51,3.5,3.5,55,0.00,CLR,,0.00,WeatherDisplay:10.37,2013-06-04 16:53:00,
2013-06-04 12:58:00,73.9,56.7,30.10,ENE,78,3.5,3.5,55,0.00,CLR,,0.00,WeatherDisplay:10.37,2013-06-04 16:58:00,
2013-06-04 13:03:00,74.8,56.5,30.10,ENE,62,6.0,6.0,53,0.00,SCT,,0.00,WeatherDisplay:10.37,2013-06-04 17:03:00,
2013-06-04 13:08:00,74.2,55.4,30.10,ENE,65,7.0,7.0,52,0.00,SCT,,0.00,WeatherDisplay:10.37,2013-06-04 17:08:00,
2013-06-04 13:13:00,72.8,55.2,30.10,ENE,57,3.5,3.5,54,0.00,SCT,,0.00,WeatherDisplay:10.37,2013-06-04 17:13:00,
2013-06-04 13:18:00,72.8,55.2,30.10,ENE,68,5.0,5.0,54,0.00,SCT,,0.00,WeatherDisplay:10.37,2013-06-04 17:18:00,
2013-06-04 13:23:00,73.4,55.7,30.09,East,100,4.0,4.0,54,0.00,SCT,,0.00,WeatherDisplay:10.37,2013-06-04 17:23:00,
2013-06-04 13:28:00,73.5,55.3,30.09,ENE,59,4.6,4.6,53,0.00,SCT,,0.00,WeatherDisplay:10.37,2013-06-04 17:28:00,
2013-06-04 13:33:00,73.6,55.4,30.09,ENE,74,6.9,6.9,53,0.00,SCT,,0.00,WeatherDisplay:10.37,2013-06-04 17:33:00,
2013-06-04 13:38:00,73.8,55.6,30.09,NE,52,2.3,2.3,53,0.00,SCT,,0.00,WeatherDisplay:10.37,2013-06-04 17:38:00,
2013-06-04 13:43:00,74.3,56.1,30.09,ENE,58,6.0,6.0,53,0.00,SCT,,0.00,WeatherDisplay:10.37,2013-06-04 17:43:00,
2013-06-04 13:48:00,75.8,56.9,30.09,SSE,147,4.6,4.6,52,0.00,SCT,,0.00,WeatherDisplay:10.37,2013-06-04 17:48:00,
2013-06-04 13:53:00,76.5,55.9,30.08,East,90,3.5,3.5,49,0.00,SCT,,0.00,WeatherDisplay:10.37,2013-06-04 17:53:00,
2013-06-04 13:58:00,76.5,56.5,30.08,ENE,70,5.0,5.0,50,0.00,SCT,,0.00,WeatherDisplay:10.37,2013-06-04 17:58:00,
2013-06-04 14:03:00,75.9,56.5,30.08,ENE,72,10.4,10.4,51,0.00,BKN,,0.00,WeatherDisplay:10.37,2013-06-04 18:03:00,
2013-06-04 14:08:00,75.3,55.9,30.08,ESE,118,4.6,4.6,51,0.00,BKN,,0.00,WeatherDisplay:10.37,2013-06-04 18:08:00,
2013-06-04 14:13:00,75.1,55.7,30.08,NNW,333,5.0,5.0,51,0.00,BKN,,0.00,WeatherDisplay:10.37,2013-06-04 18:13:00,
2013-06-04 14:18:00,75.0,56.2,30.08,NE,51,6.9,6.9,52,0.00,BKN,,0.00,WeatherDisplay:10.37,2013-06-04 18:18:00,
2013-06-04 14:23:00,75.2,56.4,30.08,NE,48,6.0,6.0,52,0.00,BKN,,0.00,WeatherDisplay:10.37,2013-06-04 18:23:00,
2013-06-04 14:28:00,76.0,56.6,30.08,SE,128,2.0,2.0,51,0.00,BKN,,0.00,WeatherDisplay:10.37,2013-06-04 18:28:00,
2013-06-04 14:33:00,75.8,56.4,30.08,ENE,62,7.0,7.0,51,0.00,BKN,,0.00,WeatherDisplay:10.37,2013-06-04 18:33:00,
2013-06-04 14:38:00,74.9,55.6,30.08,NNE,28,4.0,4.0,51,0.00,BKN,,0.00,WeatherDisplay:10.37,2013-06-04 18:38:00,
2013-06-04 14:43:00,74.9,55.6,30.07,NE,47,6.0,6.0,51,0.00,BKN,,0.00,WeatherDisplay:10.37,2013-06-04 18:43:00,
2013-06-04 14:48:00,75.0,56.2,30.07,ESE,118,7.0,7.0,52,0.00,BKN,,0.00,WeatherDisplay:10.37,2013-06-04 18:48:00,
2013-06-04 14:53:00,76.1,55.5,30.07,NE,45,4.0,4.0,49,0.00,BKN,,0.00,WeatherDisplay:10.37,2013-06-04 18:53:00,
2013-06-04 14:58:00,76.2,56.2,30.07,ENE,60,4.6,4.6,50,0.00,BKN,,0.00,WeatherDisplay:10.37,2013-06-04 18:58:00,
2013-06-04 15:03:00,76.4,56.4,30.07,SE,140,5.0,5.0,50,0.00,SCT,,0.00,WeatherDisplay:10.37,2013-06-04 19:03:00,
2013-06-04 15:08:00,76.5,57.0,30.07,East,99,4.0,4.0,51,0.00,SCT,,0.00,WeatherDisplay:10.37,2013-06-04 19:08:00,
2013-06-04 15:13:00,77.0,56.4,30.07,East,85,1.1,1.1,49,0.00,SCT,,0.00,WeatherDisplay:10.37,2013-06-04 19:13:00,
2013-06-04 15:18:00,77.7,57.0,30.07,SSE,156,1.1,1.1,49,0.00,SCT,,0.00,WeatherDisplay:10.37,2013-06-04 19:18:00,
2013-06-04 15:23:00,77.9,56.6,30.07,SE,141,4.0,4.0,48,0.00,SCT,,0.00,WeatherDisplay:10.37,2013-06-04 19:23:00,
2013-06-04 15:28:00,78.2,57.5,30.07,SE,142,2.3,2.3,49,0.00,SCT,,0.00,WeatherDisplay:10.37,2013-06-04 19:28:00,
2013-06-04 15:33:00,78.7,56.8,30.07,ENE,66,8.1,8.1,47,0.00,SCT,,0.00,WeatherDisplay:10.37,2013-06-04 19:33:00,
2013-06-04 15:38:00,78.5,56.6,30.07,East,87,2.3,2.3,47,0.00,SCT,,0.00,WeatherDisplay:10.37,2013-06-04 19:38:00,
2013-06-04 15:43:00,78.3,57.0,30.06,East,93,5.8,5.8,48,0.00,SCT,,0.00,WeatherDisplay:10.37,2013-06-04 19:43:00,
2013-06-04 15:48:00,78.9,57.5,30.06,NE,51,7.0,7.0,48,0.00,SCT,,0.00,WeatherDisplay:10.37,2013-06-04 19:48:00,
2013-06-04 15:53:00,78.5,56.0,30.06,NE,41,2.3,2.3,46,0.00,SCT,,0.00,WeatherDisplay:10.37,2013-06-04 19:53:00,
2013-06-04 15:58:00,78.9,57.0,30.06,SE,144,2.3,2.3,47,0.00,SCT,,0.00,WeatherDisplay:10.37,2013-06-04 19:58:00,
2013-06-04 16:03:00,79.0,57.0,30.06,South,171,4.0,4.0,47,0.00,CLR,,0.00,WeatherDisplay:10.37,2013-06-04 20:03:00,
2013-06-04 16:08:00,78.9,57.0,30.06,ENE,73,6.9,6.9,47,0.00,CLR,,0.00,WeatherDisplay:10.37,2013-06-04 20:08:00,
2013-06-04 16:13:00,78.7,56.2,30.06,NE,56,6.0,6.0,46,0.00,CLR,,0.00,WeatherDisplay:10.37,2013-06-04 20:13:00,
2013-06-04 16:18:00,78.7,56.8,30.06,ENE,64,3.5,3.5,47,0.00,CLR,,0.00,WeatherDisplay:10.37,2013-06-04 20:18:00,
2013-06-04 16:24:00,78.9,57.0,30.06,ENE,64,3.5,3.5,47,0.00,CLR,,0.00,WeatherDisplay:10.37,2013-06-04 20:24:00,
2013-06-04 16:29:00,79.0,57.0,30.06,ENE,64,6.0,6.0,47,0.00,CLR,,0.00,WeatherDisplay:10.37,2013-06-04 20:29:00,
2013-06-04 16:34:00,79.4,57.4,30.06,ENE,66,1.1,1.1,47,0.00,CLR,,0.00,WeatherDisplay:10.37,2013-06-04 20:34:00,
2013-06-04 16:39:00,80.1,57.5,30.06,ENE,62,8.1,8.1,46,0.00,CLR,,0.00,WeatherDisplay:10.37,2013-06-04 20:39:00,
2013-06-04 16:44:00,80.1,57.5,30.06,SSE,153,2.3,2.3,46,0.00,CLR,,0.00,WeatherDisplay:10.37,2013-06-04 20:44:00,
2013-06-04 16:49:00,79.8,57.8,30.06,SSE,153,2.3,2.3,47,0.00,CLR,,0.00,WeatherDisplay:10.37,2013-06-04 20:49:00,
2013-06-04 16:54:00,79.5,57.5,30.06,South,179,4.6,4.6,47,0.00,CLR,,0.00,WeatherDisplay:10.37,2013-06-04 20:54:00,
2013-06-04 16:59:00,79.3,56.7,30.06,South,179,1.1,1.1,46,0.00,CLR,,0.00,WeatherDisplay:10.37,2013-06-04 20:59:00,
2013-06-04 17:04:00,80.6,57.9,30.06,South,179,1.1,0.0,46,0.00,FEW,,0.00,WeatherDisplay:10.37,2013-06-04 21:04:00,
2013-06-04 17:09:00,81.2,56.6,30.06,ESE,113,4.0,4.0,43,0.00,FEW,,0.00,WeatherDisplay:10.37,2013-06-04 21:09:00,
2013-06-04 17:14:00,81.3,57.9,30.06,ESE,112,1.1,1.1,45,0.00,FEW,,0.00,WeatherDisplay:10.37,2013-06-04 21:14:00,
2013-06-04 17:19:00,81.7,57.0,30.05,ENE,70,5.0,5.0,43,0.00,FEW,,0.00,WeatherDisplay:10.37,2013-06-04 21:19:00,
2013-06-04 17:24:00,80.9,56.3,30.05,ENE,74,6.0,6.0,43,0.00,FEW,,0.00,WeatherDisplay:10.37,2013-06-04 21:24:00,
2013-06-04 17:29:00,79.4,56.2,30.05,ENE,67,2.3,2.3,45,0.00,FEW,,0.00,WeatherDisplay:10.37,2013-06-04 21:29:00,
2013-06-04 17:34:00,78.9,57.5,30.05,ENE,67,0.0,0.0,48,0.00,FEW,,0.00,WeatherDisplay:10.37,2013-06-04 21:34:00,
2013-06-04 17:39:00,79.4,57.4,30.05,East,90,3.5,3.5,47,0.00,FEW,,0.00,WeatherDisplay:10.37,2013-06-04 21:39:00,
2013-06-04 17:44:00,79.0,56.5,30.05,ENE,75,3.5,3.5,46,0.00,FEW,,0.00,WeatherDisplay:10.37,2013-06-04 21:44:00,
2013-06-04 17:49:00,78.3,57.0,30.05,ENE,72,2.0,2.0,48,0.00,FEW,,0.00,WeatherDisplay:10.37,2013-06-04 21:49:00,
2013-06-04 17:54:00,78.3,57.0,30.05,ENE,74,2.3,2.3,48,0.00,FEW,,0.00,WeatherDisplay:10.37,2013-06-04 21:54:00,
2013-06-04 17:59:00,79.2,57.2,30.05,East,81,2.3,2.3,47,0.00,FEW,,0.00,WeatherDisplay:10.37,2013-06-04 21:59:00,
2013-06-04 18:04:00,80.0,56.7,30.04,East,89,1.1,1.1,45,0.00,FEW,,0.00,WeatherDisplay:10.37,2013-06-04 22:04:00,
2013-06-04 18:09:00,80.2,57.5,30.04,ESE,115,6.0,6.0,46,0.00,FEW,,0.00,WeatherDisplay:10.37,2013-06-04 22:09:00,
2013-06-04 18:14:00,80.3,57.6,30.04,SE,126,1.1,0.0,46,0.00,FEW,,0.00,WeatherDisplay:10.37,2013-06-04 22:14:00,
2013-06-04 18:19:00,79.9,56.7,30.04,ESE,121,2.3,2.3,45,0.00,FEW,,0.00,WeatherDisplay:10.37,2013-06-04 22:19:00,
2013-06-04 18:24:00,78.7,56.2,30.04,East,85,4.0,4.0,46,0.00,FEW,,0.00,WeatherDisplay:10.37,2013-06-04 22:24:00,
2013-06-04 18:29:00,78.1,56.2,30.04,SSE,157,4.6,4.6,47,0.00,FEW,,0.00,WeatherDisplay:10.37,2013-06-04 22:29:00,
2013-06-04 18:34:00,77.7,56.4,30.04,SE,126,6.0,6.0,48,0.00,FEW,,0.00,WeatherDisplay:10.37,2013-06-04 22:34:00,
2013-06-04 18:39:00,77.5,56.3,30.04,ESE,114,4.0,4.0,48,0.00,FEW,,0.00,WeatherDisplay:10.37,2013-06-04 22:39:00,
2013-06-04 18:44:00,77.7,57.0,30.04,NE,49,1.1,1.1,49,0.00,FEW,,0.00,WeatherDisplay:10.37,2013-06-04 22:44:00,
2013-06-04 18:49:00,78.4,57.1,30.03,NE,52,2.3,2.3,48,0.00,FEW,,0.00,WeatherDisplay:10.37,2013-06-04 22:49:00,
2013-06-04 18:54:00,78.7,56.8,30.03,NE,53,2.3,2.3,47,0.00,FEW,,0.00,WeatherDisplay:10.37,2013-06-04 22:54:00,
2013-06-04 18:59:00,78.7,57.4,30.04,NE,56,1.1,1.1,48,0.00,FEW,,0.00,WeatherDisplay:10.37,2013-06-04 22:59:00,
2013-06-04 19:05:00,78.7,56.8,30.04,NE,56,5.0,5.0,47,0.00,FEW,,0.00,WeatherDisplay:10.37,2013-06-04 23:05:00,
2013-06-04 19:10:00,77.9,56.0,30.04,ESE,116,4.0,4.0,47,0.00,FEW,,0.00,WeatherDisplay:10.37,2013-06-04 23:10:00,
2013-06-04 19:15:00,77.9,57.2,30.03,ESE,118,4.0,4.0,49,0.00,FEW,,0.00,WeatherDisplay:10.37,2013-06-04 23:15:00,
2013-06-04 19:20:00,77.6,56.4,30.03,ENE,74,2.3,2.3,48,0.00,FEW,,0.00,WeatherDisplay:10.37,2013-06-04 23:20:00,
2013-06-04 19:25:00,77.5,56.3,30.03,ENE,74,6.0,6.0,48,0.00,FEW,,0.00,WeatherDisplay:10.37,2013-06-04 23:25:00,
2013-06-04 19:30:00,77.3,56.6,30.04,ENE,74,3.0,3.0,49,0.00,FEW,,0.00,WeatherDisplay:10.37,2013-06-04 23:30:00,
2013-06-04 19:35:00,77.1,56.5,30.04,ENE,70,4.0,4.0,49,0.00,FEW,,0.00,WeatherDisplay:10.37,2013-06-04 23:35:00,
2013-06-04 19:40:00,76.4,56.4,30.04,ENE,60,4.0,4.0,50,0.00,FEW,,0.00,WeatherDisplay:10.37,2013-06-04 23:40:00,
2013-06-04 19:45:00,75.8,55.8,30.04,ENE,60,3.5,3.5,50,0.00,FEW,,0.00,WeatherDisplay:10.37,2013-06-04 23:45:00,
2013-06-04 19:50:00,75.4,56.0,30.04,ENE,64,8.1,8.1,51,0.00,FEW,,0.00,WeatherDisplay:10.37,2013-06-04 23:50:00,
2013-06-04 19:55:00,75.0,56.2,30.04,ENE,64,1.1,1.1,52,0.00,FEW,,0.00,WeatherDisplay:10.37,2013-06-04 23:55:00,
2013-06-04 20:00:00,75.0,56.2,30.04,ENE,64,3.5,3.5,52,0.00,FEW,,0.00,WeatherDisplay:10.37,2013-06-05 00:00:00,
2013-06-04 20:05:00,74.8,56.0,30.04,ENE,64,2.0,2.0,52,0.00,CLR,,0.00,WeatherDisplay:10.37,2013-06-05 00:05:00,
2013-06-04 20:10:00,74.4,55.6,30.04,ENE,72,3.5,3.5,52,0.00,CLR,,0.00,WeatherDisplay:10.37,2013-06-05 00:10:00,
2013-06-04 20:15:00,74.1,55.9,30.04,ENE,72,1.1,1.1,53,0.00,CLR,,0.00,WeatherDisplay:10.37,2013-06-05 00:15:00,
2013-06-04 20:20:00,73.9,56.2,30.04,ENE,72,3.5,3.5,54,0.00,CLR,,0.00,WeatherDisplay:10.37,2013-06-05 00:20:00,
2013-06-04 20:25:00,73.6,55.9,30.04,ENE,72,2.0,2.0,54,0.00,CLR,,0.00,WeatherDisplay:10.37,2013-06-05 00:25:00,
2013-06-04 20:30:00,73.3,56.2,30.04,ENE,72,4.0,4.0,55,0.00,CLR,,0.00,WeatherDisplay:10.37,2013-06-05 00:30:00,
2013-06-04 20:35:00,73.1,56.0,30.04,ENE,74,2.3,2.3,55,0.00,CLR,,0.00,WeatherDisplay:10.37,2013-06-05 00:35:00,
2013-06-04 20:40:00,73.0,55.9,30.03,ENE,67,1.1,0.0,55,0.00,CLR,,0.00,WeatherDisplay:10.37,2013-06-05 00:40:00,
2013-06-04 20:45:00,72.8,56.2,30.03,ENE,67,3.5,3.5,56,0.00,CLR,,0.00,WeatherDisplay:10.37,2013-06-05 00:45:00,
2013-06-04 20:50:00,72.6,56.0,30.03,ENE,67,3.5,3.5,56,0.00,CLR,,0.00,WeatherDisplay:10.37,2013-06-05 00:50:00,
2013-06-04 20:55:00,72.4,55.8,30.03,ENE,67,5.0,5.0,56,0.00,CLR,,0.00,WeatherDisplay:10.37,2013-06-05 00:55:00,
2013-06-04 21:00:00,72.2,56.1,30.03,ENE,67,1.1,1.1,57,0.00,CLR,,0.00,WeatherDisplay:10.37,2013-06-05 01:00:00,
2013-06-04 21:05:00,72.1,56.0,30.03,ENE,67,2.3,2.3,57,0.00,CLR,,0.00,WeatherDisplay:10.37,2013-06-05 01:05:00,
2013-06-04 21:10:00,71.9,55.8,30.03,ENE,67,3.0,3.0,57,0.00,CLR,,0.00,WeatherDisplay:10.37,2013-06-05 01:10:00,
2013-06-04 21:15:00,71.7,55.7,30.03,ENE,67,1.1,1.1,57,0.00,CLR,,0.00,WeatherDisplay:10.37,2013-06-05 01:15:00,
2013-06-04 21:20:00,71.6,56.0,30.03,ENE,67,2.0,2.0,58,0.00,CLR,,0.00,WeatherDisplay:10.37,2013-06-05 01:20:00,
2013-06-04 21:25:00,71.5,55.9,30.04,ENE,67,3.5,3.5,58,0.00,CLR,,0.00,WeatherDisplay:10.37,2013-06-05 01:25:00,
2013-06-04 21:30:00,71.4,55.9,30.04,ENE,67,4.0,4.0,58,0.00,CLR,,0.00,WeatherDisplay:10.37,2013-06-05 01:30:00,
2013-06-04 21:35:00,71.3,55.8,30.05,ENE,67,2.0,2.0,58,0.00,CLR,,0.00,WeatherDisplay:10.37,2013-06-05 01:35:00,
2013-06-04 21:40:00,71.0,55.9,30.04,ENE,67,3.0,3.0,59,0.00,CLR,,0.00,WeatherDisplay:10.37,2013-06-05 01:40:00,
2013-06-04 21:45:00,70.9,55.9,30.05,ENE,67,2.3,2.3,59,0.00,CLR,,0.00,WeatherDisplay:10.37,2013-06-05 01:45:00,
2013-06-04 21:50:00,70.7,55.7,30.05,ENE,67,1.1,1.1,59,0.00,CLR,,0.00,WeatherDisplay:10.37,2013-06-05 01:50:00,
2013-06-04 21:55:00,70.6,56.0,30.05,ENE,67,1.0,0.0,60,0.00,CLR,,0.00,WeatherDisplay:10.37,2013-06-05 01:55:00,
2013-06-04 22:00:00,70.4,55.8,30.05,ENE,67,2.3,0.0,60,0.00,CLR,,0.00,WeatherDisplay:10.37,2013-06-05 02:00:00,
2013-06-04 22:05:00,70.2,56.1,30.05,ENE,67,2.0,2.0,61,0.00,CLR,,0.00,WeatherDisplay:10.37,2013-06-05 02:05:00,
2013-06-04 22:10:00,70.1,56.0,30.05,ENE,67,3.5,3.5,61,0.00,CLR,,0.00,WeatherDisplay:10.37,2013-06-05 02:10:00,
2013-06-04 22:15:00,69.9,55.8,30.05,ENE,67,4.0,4.0,61,0.00,CLR,,0.00,WeatherDisplay:10.37,2013-06-05 02:15:00,
2013-06-04 22:20:00,69.7,56.1,30.05,ENE,67,1.1,1.1,62,0.00,CLR,,0.00,WeatherDisplay:10.37,2013-06-05 02:20:00,
2013-06-04 22:25:00,69.4,55.8,30.05,ENE,67,1.1,1.1,62,0.00,CLR,,0.00,WeatherDisplay:10.37,2013-06-05 02:25:00,
2013-06-04 22:30:00,69.2,56.1,30.05,ENE,67,2.0,2.0,63,0.00,CLR,,0.00,WeatherDisplay:10.37,2013-06-05 02:30:00,
2013-06-04 22:35:00,69.0,55.9,30.05,ENE,67,1.1,0.0,63,0.00,CLR,,0.00,WeatherDisplay:10.37,2013-06-05 02:35:00,
2013-06-04 22:40:00,68.8,56.1,30.05,ENE,67,1.1,1.1,64,0.00,CLR,,0.00,WeatherDisplay:10.37,2013-06-05 02:40:00,
2013-06-04 22:45:00,68.6,55.9,30.05,ENE,67,2.3,2.3,64,0.00,CLR,,0.00,WeatherDisplay:10.37,2013-06-05 02:45:00,
2013-06-04 22:50:00,68.5,55.8,30.05,ENE,67,3.0,3.0,64,0.00,CLR,,0.00,WeatherDisplay:10.37,2013-06-05 02:50:00,
2013-06-04 22:55:00,68.4,55.7,30.05,ENE,67,1.1,1.1,64,0.00,CLR,,0.00,WeatherDisplay:10.37,2013-06-05 02:55:00,
2013-06-04 23:00:00,68.3,55.6,30.05,ENE,67,1.1,1.1,64,0.00,CLR,,0.00,WeatherDisplay:10.37,2013-06-05 03:00:00,
2013-06-04 23:05:00,68.3,55.6,30.05,ENE,67,3.0,3.0,64,0.00,CLR,,0.00,WeatherDisplay:10.37,2013-06-05 03:05:00,
2013-06-04 23:10:00,68.2,55.6,30.05,ENE,67,1.1,1.1,64,0.00,CLR,,0.00,WeatherDisplay:10.37,2013-06-05 03:10:00,
2013-06-04 23:15:00,68.2,55.6,30.05,ENE,67,1.1,1.1,64,0.00,CLR,,0.00,WeatherDisplay:10.37,2013-06-05 03:15:00,
2013-06-04 23:20:00,68.2,55.6,30.05,ENE,68,1.1,1.1,64,0.00,CLR,,0.00,WeatherDisplay:10.37,2013-06-05 03:20:00,
2013-06-04 23:25:00,68.1,55.5,30.05,ENE,68,1.0,1.0,64,0.00,CLR,,0.00,WeatherDisplay:10.37,2013-06-05 03:25:00,
2013-06-04 23:30:00,68.1,55.5,30.05,ENE,69,4.0,4.0,64,0.00,CLR,,0.00,WeatherDisplay:10.37,2013-06-05 03:30:00,
2013-06-04 23:35:00,68.0,55.4,30.05,ENE,68,3.5,3.5,64,0.00,CLR,,0.00,WeatherDisplay:10.37,2013-06-05 03:35:00,
2013-06-04 23:40:00,67.9,55.3,30.05,ENE,69,3.5,3.5,64,0.00,CLR,,0.00,WeatherDisplay:10.37,2013-06-05 03:40:00,
2013-06-04 23:45:00,67.6,55.0,30.05,ENE,68,1.1,1.1,64,0.00,CLR,,0.00,WeatherDisplay:10.37,2013-06-05 03:45:00,
2013-06-04 23:50:00,67.4,55.2,30.05,ENE,69,2.3,2.3,65,0.00,CLR,,0.00,WeatherDisplay:10.37,2013-06-05 03:50:00,
2013-06-04 23:55:00,67.3,55.1,30.05,ENE,68,4.0,4.0,65,0.00,CLR,,0.00,WeatherDisplay:10.37,2013-06-05 03:55:00,